createdAt,value
2018-08-10T00:00:13.917Z,66.52
2018-08-10T00:01:13.922Z,66.90
2018-08-10T00:02:13.846Z,67.47
2018-08-10T00:03:13.826Z,67.29
2018-08-10T00:04:13.805Z,67.29
2018-08-10T00:05:13.770Z,67.29
2018-08-10T00:06:13.752Z,67.09
2018-08-10T00:07:13.783Z,67.29
2018-08-10T00:08:13.687Z,67.96
2018-08-10T00:09:13.731Z,67.29
2018-08-10T00:10:13.674Z,67.19
2018-08-10T00:11:13.602Z,67.19
2018-08-10T00:12:13.585Z,67.19
2018-08-10T00:13:13.573Z,67.38
2018-08-10T00:14:13.536Z,67.19
2018-08-10T00:15:13.509Z,67.19
2018-08-10T00:16:13.481Z,67.47
2018-08-10T00:17:13.446Z,67.19
2018-08-10T00:18:13.424Z,67.00
2018-08-10T00:19:13.414Z,67.76
2018-08-10T00:20:13.374Z,68.05
2018-08-10T00:21:13.339Z,67.96
2018-08-10T00:22:13.308Z,67.29
2018-08-10T00:23:13.276Z,67.38
2018-08-10T00:24:13.280Z,67.00
2018-08-10T00:25:13.286Z,67.96
2018-08-10T00:26:13.195Z,68.05
2018-08-10T00:27:13.185Z,68.05
2018-08-10T00:28:13.171Z,67.86
2018-08-10T00:29:13.232Z,67.96
2018-08-10T00:30:13.089Z,67.67
2018-08-10T00:31:13.075Z,67.96
2018-08-10T00:32:13.040Z,67.96
2018-08-10T00:33:13.007Z,68.15
2018-08-10T00:34:12.984Z,68.15
2018-08-10T00:35:12.957Z,68.44
2018-08-10T00:36:12.918Z,68.15
2018-08-10T00:37:12.902Z,67.76
2018-08-10T00:38:12.878Z,67.57
2018-08-10T00:39:12.855Z,68.05
2018-08-10T00:40:12.819Z,67.76
2018-08-10T00:41:12.835Z,68.24
2018-08-10T00:42:12.757Z,67.76
2018-08-10T00:43:12.817Z,68.05
2018-08-10T00:44:12.782Z,67.76
2018-08-10T00:45:12.686Z,67.35
2018-08-10T00:46:12.667Z,67.00
2018-08-10T00:47:12.684Z,66.29
2018-08-10T00:48:12.610Z,67.38
2018-08-10T00:49:12.578Z,66.96
2018-08-10T00:50:12.543Z,67.47
2018-08-10T00:51:12.676Z,67.47
2018-08-10T00:52:12.496Z,66.61
2018-08-10T00:53:12.460Z,66.96
2018-08-10T00:54:12.437Z,67.25
2018-08-10T00:55:12.411Z,67.38
2018-08-10T00:56:12.375Z,67.44
2018-08-10T00:57:12.358Z,66.77
2018-08-10T00:58:12.334Z,66.86
2018-08-10T00:59:12.296Z,67.16
2018-08-10T01:00:12.277Z,67.16
2018-08-10T01:01:12.246Z,67.35
2018-08-10T01:02:12.217Z,67.25
2018-08-10T01:03:12.194Z,67.25
2018-08-10T01:04:12.174Z,68.02
2018-08-10T01:05:12.145Z,67.25
2018-08-10T01:06:12.110Z,67.16
2018-08-10T01:07:12.112Z,67.63
2018-08-10T01:08:12.053Z,67.92
2018-08-10T01:09:12.031Z,67.57
2018-08-10T01:10:12.057Z,67.54
2018-08-10T01:11:11.979Z,67.83
2018-08-10T01:12:11.948Z,67.73
2018-08-10T01:13:11.927Z,68.02
2018-08-10T01:14:11.901Z,67.38
2018-08-10T01:15:29.090Z,67.96
2018-08-10T01:17:17.852Z,68.12
2018-08-10T01:18:17.704Z,68.30
2018-08-10T01:20:20.951Z,68.12
2018-08-10T01:21:20.788Z,69.36
2018-08-10T01:23:45.709Z,68.69
2018-08-10T01:24:45.554Z,68.88
2018-08-10T01:26:51.497Z,67.73
2018-08-10T01:27:51.418Z,68.50
2018-08-10T01:29:56.291Z,67.54
2018-08-10T01:30:56.107Z,68.02
2018-08-10T01:31:56.082Z,68.02
2018-08-10T01:32:56.054Z,67.92
2018-08-10T01:33:56.020Z,67.44
2018-08-10T01:34:56.011Z,67.83
2018-08-10T01:35:55.970Z,68.02
2018-08-10T01:36:55.945Z,67.63
2018-08-10T01:37:55.919Z,67.16
2018-08-10T01:38:55.949Z,67.25
2018-08-10T01:39:55.862Z,67.35
2018-08-10T01:40:55.830Z,67.73
2018-08-10T01:41:55.912Z,67.16
2018-08-10T01:42:55.780Z,67.54
2018-08-10T01:43:55.765Z,68.88
2018-08-10T01:44:55.738Z,67.92
2018-08-10T01:45:55.700Z,67.92
2018-08-10T01:46:55.748Z,67.54
2018-08-10T01:47:55.655Z,68.69
2018-08-10T01:48:55.628Z,68.88
2018-08-10T01:49:55.593Z,68.79
2018-08-10T01:50:55.576Z,68.79
2018-08-10T01:51:57.260Z,68.69
2018-08-10T01:52:55.496Z,68.02
2018-08-10T01:53:55.469Z,68.69
2018-08-10T01:54:57.260Z,67.83
2018-08-10T01:55:55.447Z,68.12
2018-08-10T01:56:55.396Z,67.83
2018-08-10T01:57:55.381Z,68.02
2018-08-10T01:58:55.350Z,67.83
2018-08-10T01:59:55.335Z,67.99
2018-08-10T02:00:55.281Z,67.99
2018-08-10T02:01:55.251Z,67.50
2018-08-10T02:02:55.231Z,67.89
2018-08-10T02:03:55.227Z,67.79
2018-08-10T02:04:55.179Z,68.08
2018-08-10T02:05:55.143Z,67.79
2018-08-10T02:06:55.166Z,68.18
2018-08-10T02:07:55.088Z,67.89
2018-08-10T02:08:55.063Z,68.75
2018-08-10T02:09:55.035Z,69.71
2018-08-10T02:10:55.060Z,68.66
2018-08-10T02:11:55.051Z,68.95
2018-08-10T02:12:55.000Z,68.46
2018-08-10T02:13:54.980Z,68.27
2018-08-10T02:14:54.959Z,67.99
2018-08-10T02:15:54.934Z,68.66
2018-08-10T02:16:54.896Z,69.23
2018-08-10T02:17:54.877Z,68.75
2018-08-10T02:18:54.846Z,68.66
2018-08-10T02:19:54.814Z,68.08
2018-08-10T02:20:54.780Z,68.37
2018-08-10T02:21:54.766Z,67.89
2018-08-10T02:22:54.745Z,67.99
2018-08-10T02:23:54.712Z,68.08
2018-08-10T02:24:54.681Z,68.08
2018-08-10T02:25:54.653Z,68.27
2018-08-10T02:26:54.634Z,67.99
2018-08-10T02:27:54.707Z,67.99
2018-08-10T02:28:54.651Z,67.69
2018-08-10T02:29:54.598Z,67.22
2018-08-10T02:30:54.509Z,67.50
2018-08-10T02:31:54.493Z,67.32
2018-08-10T02:32:54.463Z,67.22
2018-08-10T02:33:54.445Z,67.12
2018-08-10T02:34:54.412Z,67.32
2018-08-10T02:35:54.396Z,67.02
2018-08-10T02:36:54.358Z,66.74
2018-08-10T02:37:54.255Z,67.22
2018-08-10T02:38:54.253Z,67.60
2018-08-10T02:39:54.251Z,66.55
2018-08-10T02:40:54.186Z,67.02
2018-08-10T02:41:54.151Z,66.35
2018-08-10T02:42:54.132Z,66.26
2018-08-10T02:43:54.088Z,65.78
2018-08-10T02:44:54.073Z,65.78
2018-08-10T02:45:54.068Z,65.75
2018-08-10T02:46:54.011Z,65.75
2018-08-10T02:47:53.993Z,65.26
2018-08-10T02:48:54.022Z,65.59
2018-08-10T02:49:53.930Z,65.39
2018-08-10T02:50:53.908Z,66.16
2018-08-10T02:51:53.889Z,65.78
2018-08-10T02:52:53.864Z,66.13
2018-08-10T02:53:53.830Z,65.97
2018-08-10T02:54:53.790Z,65.97
2018-08-10T02:55:53.834Z,66.06
2018-08-10T02:56:53.748Z,65.49
2018-08-10T02:57:53.719Z,65.39
2018-08-10T02:58:53.693Z,65.78
2018-08-10T02:59:53.672Z,65.49
2018-08-10T03:00:53.684Z,65.30
2018-08-10T03:01:53.591Z,65.46
2018-08-10T03:02:53.577Z,65.75
2018-08-10T03:03:53.585Z,64.59
2018-08-10T03:04:53.508Z,64.12
2018-08-10T03:06:08.268Z,63.83
2018-08-10T03:07:52.696Z,64.22
2018-08-10T03:08:52.615Z,63.73
2018-08-10T03:09:52.517Z,63.06
2018-08-10T03:10:52.482Z,62.77
2018-08-10T03:11:52.440Z,62.59
2018-08-10T03:12:54.374Z,62.77
2018-08-10T03:13:52.422Z,62.49
2018-08-10T03:14:52.365Z,62.59
2018-08-10T03:15:52.338Z,62.68
2018-08-10T03:16:52.347Z,61.82
2018-08-10T03:17:52.283Z,62.20
2018-08-10T03:18:52.251Z,61.72
2018-08-10T03:19:52.220Z,62.30
2018-08-10T03:20:52.191Z,61.91
2018-08-10T03:21:52.158Z,61.63
2018-08-10T03:22:52.130Z,61.63
2018-08-10T03:23:52.105Z,61.72
2018-08-10T03:24:52.209Z,60.96
2018-08-10T03:25:52.068Z,60.86
2018-08-10T03:26:52.037Z,60.38
2018-08-10T03:27:52.010Z,59.90
2018-08-10T03:28:51.976Z,59.52
2018-08-10T03:29:51.939Z,58.94
2018-08-10T03:30:51.933Z,58.94
2018-08-10T03:31:52.817Z,58.84
2018-08-10T03:32:51.877Z,58.65
2018-08-10T03:33:51.827Z,58.84
2018-08-10T03:34:51.835Z,58.46
2018-08-10T03:35:51.785Z,57.48
2018-08-10T03:36:51.752Z,57.57
2018-08-10T03:37:51.716Z,57.41
2018-08-10T03:38:51.696Z,56.71
2018-08-10T03:39:51.717Z,56.13
2018-08-10T03:40:51.631Z,56.32
2018-08-10T03:41:51.606Z,56.81
2018-08-10T03:42:51.576Z,56.81
2018-08-10T03:43:51.549Z,56.81
2018-08-10T03:44:51.522Z,56.74
2018-08-10T03:45:51.500Z,56.42
2018-08-10T03:46:51.488Z,56.23
2018-08-10T03:47:51.427Z,55.65
2018-08-10T03:48:51.409Z,55.94
2018-08-10T03:49:51.415Z,56.04
2018-08-10T03:50:51.359Z,55.65
2018-08-10T03:51:51.387Z,55.56
2018-08-10T03:52:51.315Z,55.46
2018-08-10T03:53:51.264Z,55.65
2018-08-10T03:54:51.246Z,55.56
2018-08-10T03:55:51.246Z,55.08
2018-08-10T03:56:51.182Z,54.70
2018-08-10T03:57:51.193Z,54.89
2018-08-10T03:58:51.165Z,55.08
2018-08-10T03:59:51.209Z,54.70
2018-08-10T04:00:51.207Z,54.79
2018-08-10T04:01:51.173Z,54.41
2018-08-10T04:02:51.063Z,54.50
2018-08-10T04:04:05.720Z,53.83
2018-08-10T04:05:55.492Z,54.12
2018-08-10T04:06:55.338Z,54.50
2018-08-10T04:08:58.793Z,53.64
2018-08-10T04:09:58.681Z,53.55
2018-08-10T04:12:03.584Z,53.74
2018-08-10T04:13:03.513Z,53.93
2018-08-10T04:14:03.493Z,53.45
2018-08-10T04:15:03.374Z,53.45
2018-08-10T04:16:03.345Z,53.83
2018-08-10T04:17:03.339Z,53.64
2018-08-10T04:18:03.284Z,54.03
2018-08-10T04:19:03.262Z,53.83
2018-08-10T04:20:03.238Z,54.32
2018-08-10T04:21:03.212Z,54.22
2018-08-10T04:22:03.207Z,53.93
2018-08-10T04:23:03.149Z,53.83
2018-08-10T04:24:03.113Z,53.45
2018-08-10T04:25:03.094Z,53.45
2018-08-10T04:26:03.055Z,53.64
2018-08-10T04:27:03.047Z,53.71
2018-08-10T04:28:03.005Z,52.56
2018-08-10T04:29:02.977Z,52.56
2018-08-10T04:30:02.958Z,52.66
2018-08-10T04:31:02.931Z,52.78
2018-08-10T04:32:02.994Z,52.78
2018-08-10T04:33:02.867Z,53.04
2018-08-10T04:34:02.860Z,52.85
2018-08-10T04:35:02.816Z,52.59
2018-08-10T04:36:02.775Z,53.36
2018-08-10T04:37:02.748Z,52.78
2018-08-10T04:38:02.764Z,52.97
2018-08-10T04:39:02.691Z,53.07
2018-08-10T04:40:02.675Z,52.59
2018-08-10T04:41:02.668Z,52.97
2018-08-10T04:42:02.611Z,52.97
2018-08-10T04:43:02.584Z,53.26
2018-08-10T04:44:02.608Z,52.40
2018-08-10T04:45:02.524Z,52.40
2018-08-10T04:46:02.498Z,52.87
2018-08-10T04:47:02.499Z,52.30
2018-08-10T04:48:02.481Z,52.30
2018-08-10T04:49:02.446Z,52.40
2018-08-10T04:50:02.421Z,51.63
2018-08-10T04:51:02.417Z,51.61
2018-08-10T04:52:02.337Z,51.73
2018-08-10T04:53:02.340Z,51.82
2018-08-10T04:54:19.487Z,51.54
2018-08-10T04:56:07.920Z,51.54
2018-08-10T04:57:07.677Z,51.92
2018-08-10T04:59:13.524Z,51.73
2018-08-10T05:00:13.395Z,51.92
2018-08-10T05:01:13.399Z,51.92
2018-08-10T05:02:15.012Z,51.63
2018-08-10T05:03:13.283Z,51.82
2018-08-10T05:04:13.260Z,51.54
2018-08-10T05:05:13.241Z,51.44
2018-08-10T05:06:13.206Z,52.50
2018-08-10T05:07:13.175Z,52.40
2018-08-10T05:08:13.147Z,52.78
2018-08-10T05:09:13.137Z,52.97
2018-08-10T05:10:16.140Z,53.07
2018-08-10T05:11:13.064Z,53.07
2018-08-10T05:12:13.033Z,52.97
2018-08-10T05:13:13.040Z,52.78
2018-08-10T05:14:13.143Z,52.97
2018-08-10T05:15:13.066Z,53.07
2018-08-10T05:16:13.020Z,52.59
2018-08-10T05:17:12.889Z,53.16
2018-08-10T05:18:12.866Z,52.69
2018-08-10T05:19:12.841Z,52.97
2018-08-10T05:20:12.807Z,52.78
2018-08-10T05:21:12.910Z,53.07
2018-08-10T05:22:14.543Z,53.26
2018-08-10T05:23:12.719Z,53.45
2018-08-10T05:24:12.750Z,52.87
2018-08-10T05:25:12.735Z,53.45
2018-08-10T05:26:13.869Z,53.58
2018-08-10T05:27:24.608Z,53.77
2018-08-10T05:28:12.640Z,53.67
2018-08-10T05:29:12.750Z,54.53
2018-08-10T05:30:12.549Z,54.24
2018-08-10T05:31:12.600Z,54.63
2018-08-10T05:32:12.478Z,54.63
2018-08-10T05:33:12.453Z,54.50
2018-08-10T05:34:12.426Z,53.83
2018-08-10T05:35:12.389Z,54.50
2018-08-10T05:36:12.367Z,54.63
2018-08-10T05:37:12.334Z,54.53
2018-08-10T05:38:12.387Z,54.44
2018-08-10T05:39:14.037Z,54.34
2018-08-10T05:40:12.313Z,54.91
2018-08-10T05:41:12.224Z,54.72
2018-08-10T05:42:12.204Z,54.91
2018-08-10T05:43:12.164Z,55.11
2018-08-10T05:44:12.209Z,55.78
2018-08-10T05:45:12.119Z,56.16
2018-08-10T05:46:12.243Z,55.49
2018-08-10T05:47:12.096Z,55.97
2018-08-10T05:48:12.346Z,55.01
2018-08-10T05:49:12.170Z,56.35
2018-08-10T05:50:12.095Z,55.68
2018-08-10T05:51:12.122Z,55.58
2018-08-10T05:52:12.091Z,55.87
2018-08-10T05:53:12.135Z,56.16
2018-08-10T05:54:11.878Z,56.45
2018-08-10T05:55:11.906Z,55.97
2018-08-10T05:56:12.115Z,56.45
2018-08-10T05:57:11.815Z,56.64
2018-08-10T05:58:11.753Z,56.93
2018-08-10T05:59:13.595Z,56.76
2018-08-10T06:00:29.813Z,57.53
2018-08-10T06:02:15.514Z,57.15
2018-08-10T06:03:14.871Z,57.72
2018-08-10T06:05:19.194Z,57.82
2018-08-10T06:06:19.394Z,57.82
2018-08-10T06:08:22.047Z,58.97
2018-08-10T06:09:22.023Z,58.49
2018-08-10T06:11:30.937Z,58.39
2018-08-10T06:12:30.853Z,58.59
2018-08-10T06:14:26.751Z,59.16
2018-08-10T06:15:26.774Z,58.97
2018-08-10T06:17:28.239Z,59.06
2018-08-10T06:18:28.245Z,59.45
2018-08-10T06:20:34.310Z,60.41
2018-08-10T06:21:34.135Z,60.72
2018-08-10T06:22:33.997Z,60.35
2018-08-10T06:23:34.076Z,60.82
2018-08-10T06:24:34.028Z,60.53
2018-08-10T06:25:33.891Z,61.11
2018-08-10T06:26:33.825Z,62.07
2018-08-10T06:27:33.868Z,62.74
2018-08-10T06:28:33.878Z,61.78
2018-08-10T06:29:33.748Z,62.07
2018-08-10T06:30:33.748Z,62.55
2018-08-10T06:31:33.905Z,62.68
2018-08-10T06:32:33.694Z,63.16
2018-08-10T06:33:33.642Z,63.54
2018-08-10T06:34:33.617Z,62.96
2018-08-10T06:35:33.583Z,63.06
2018-08-10T06:36:33.646Z,64.22
2018-08-10T06:37:33.521Z,63.83
2018-08-10T06:38:33.513Z,64.31
2018-08-10T06:39:33.461Z,65.56
2018-08-10T06:40:45.602Z,64.89
2018-08-10T06:42:42.485Z,64.31
2018-08-10T06:43:42.274Z,64.89
2018-08-10T06:45:46.633Z,65.84
2018-08-10T06:46:46.588Z,65.46
2018-08-10T06:48:50.039Z,65.36
2018-08-10T06:49:49.965Z,66.16
2018-08-10T06:51:53.588Z,65.97
2018-08-10T06:52:53.342Z,65.17
2018-08-10T06:54:57.753Z,65.97
2018-08-10T06:55:57.853Z,65.84
2018-08-10T06:56:57.721Z,65.88
2018-08-10T06:57:57.606Z,65.97
2018-08-10T06:58:57.593Z,66.26
2018-08-10T06:59:57.541Z,65.78
2018-08-10T07:00:57.585Z,65.97
2018-08-10T07:01:57.487Z,65.49
2018-08-10T07:02:57.537Z,65.30
2018-08-10T07:03:57.442Z,65.20
2018-08-10T07:04:57.407Z,65.11
2018-08-10T07:05:57.384Z,64.50
2018-08-10T07:06:57.366Z,65.46
2018-08-10T07:07:57.416Z,65.08
2018-08-10T07:08:57.361Z,65.08
2018-08-10T07:09:57.291Z,65.08
2018-08-10T07:10:57.258Z,65.01
2018-08-10T07:11:57.302Z,65.01
2018-08-10T07:12:57.205Z,65.49
2018-08-10T07:13:57.178Z,66.26
2018-08-10T07:14:57.147Z,66.16
2018-08-10T07:15:57.136Z,66.36
2018-08-10T07:16:57.135Z,67.83
2018-08-10T07:17:57.073Z,66.68
2018-08-10T07:18:57.053Z,66.68
2018-08-10T07:19:57.015Z,66.97
2018-08-10T07:20:56.992Z,66.77
2018-08-10T07:21:56.966Z,67.83
2018-08-10T07:22:56.927Z,67.54
2018-08-10T07:23:56.902Z,66.97
2018-08-10T07:24:56.887Z,66.97
2018-08-10T07:25:56.852Z,67.07
2018-08-10T07:26:56.837Z,67.54
2018-08-10T07:27:56.802Z,67.35
2018-08-10T07:28:56.779Z,67.64
2018-08-10T07:29:56.745Z,66.68
2018-08-10T07:30:56.718Z,69.50
2018-08-10T07:31:56.690Z,69.31
2018-08-10T07:32:56.670Z,69.60
2018-08-10T07:33:56.635Z,68.92
2018-08-10T07:34:56.624Z,69.27
2018-08-10T07:35:56.629Z,69.12
2018-08-10T07:36:56.565Z,69.50
2018-08-10T07:37:56.534Z,69.31
2018-08-10T07:38:56.517Z,70.40
2018-08-10T07:39:56.487Z,70.68
2018-08-10T07:40:56.614Z,70.59
2018-08-10T07:41:56.435Z,70.98
2018-08-10T07:42:56.448Z,69.82
2018-08-10T07:43:56.401Z,70.78
2018-08-10T07:44:56.377Z,70.98
2018-08-10T07:45:56.463Z,71.94
2018-08-10T07:46:56.307Z,71.55
2018-08-10T07:47:56.277Z,72.80
2018-08-10T07:48:56.247Z,72.71
2018-08-10T07:49:56.224Z,71.36
2018-08-10T07:50:56.319Z,71.14
2018-08-10T07:51:56.179Z,72.03
2018-08-10T07:52:56.146Z,72.23
2018-08-10T07:53:56.120Z,70.88
2018-08-10T07:54:56.090Z,71.08
2018-08-10T07:55:56.079Z,71.55
2018-08-10T07:56:56.095Z,71.55
2018-08-10T07:57:56.019Z,71.55
2018-08-10T07:58:56.056Z,71.17
2018-08-10T07:59:55.968Z,71.65
2018-08-10T08:00:55.938Z,72.42
2018-08-10T08:01:55.928Z,71.84
2018-08-10T08:02:55.888Z,71.26
2018-08-10T08:03:55.860Z,72.13
2018-08-10T08:04:55.838Z,72.80
2018-08-10T08:05:55.834Z,72.80
2018-08-10T08:06:55.844Z,72.90
2018-08-10T08:07:55.763Z,72.42
2018-08-10T08:08:55.729Z,72.80
2018-08-10T08:09:55.717Z,72.58
2018-08-10T08:10:55.684Z,73.57
2018-08-10T08:11:55.663Z,73.86
2018-08-10T08:12:55.634Z,73.67
2018-08-10T08:13:55.606Z,74.09
2018-08-10T08:14:55.608Z,74.57
2018-08-10T08:15:55.553Z,74.38
2018-08-10T08:16:55.530Z,74.29
2018-08-10T08:17:55.509Z,74.48
2018-08-10T08:18:55.477Z,74.76
2018-08-10T08:19:55.540Z,75.05
2018-08-10T08:20:55.436Z,74.86
2018-08-10T08:21:55.401Z,75.34
2018-08-10T08:22:55.366Z,76.25
2018-08-10T08:23:55.471Z,74.99
2018-08-10T08:24:55.326Z,75.24
2018-08-10T08:25:55.297Z,74.96
2018-08-10T08:26:55.271Z,75.24
2018-08-10T08:27:55.249Z,75.63
2018-08-10T08:28:55.222Z,75.92
2018-08-10T08:29:55.315Z,75.15
2018-08-10T08:30:55.179Z,75.63
2018-08-10T08:31:55.159Z,78.71
2018-08-10T08:32:55.117Z,76.69
2018-08-10T08:33:55.103Z,77.17
2018-08-10T08:34:55.168Z,77.17
2018-08-10T08:35:55.049Z,76.69
2018-08-10T08:36:55.026Z,77.08
2018-08-10T08:37:54.988Z,77.08
2018-08-10T08:38:54.972Z,77.65
2018-08-10T08:39:54.951Z,77.08
2018-08-10T08:40:54.956Z,77.84
2018-08-10T08:41:54.891Z,78.23
2018-08-10T08:42:54.872Z,78.13
2018-08-10T08:43:54.837Z,77.56
2018-08-10T08:44:54.830Z,78.81
2018-08-10T08:45:55.153Z,78.42
2018-08-10T08:46:54.765Z,77.75
2018-08-10T08:47:54.735Z,77.88
2018-08-10T08:48:54.712Z,78.17
2018-08-10T08:49:54.710Z,77.69
2018-08-10T08:50:54.661Z,78.27
2018-08-10T08:51:54.633Z,78.27
2018-08-10T08:52:54.626Z,77.78
2018-08-10T08:53:54.654Z,78.65
2018-08-10T08:54:54.637Z,79.08
2018-08-10T08:55:54.553Z,78.40
2018-08-10T08:56:54.571Z,78.02
2018-08-10T08:57:54.489Z,78.59
2018-08-10T08:58:54.461Z,77.92
2018-08-10T08:59:54.449Z,78.88
2018-08-10T09:00:54.409Z,78.44
2018-08-10T09:01:54.394Z,77.73
2018-08-10T09:02:54.512Z,78.34
2018-08-10T09:04:17.351Z,78.31
2018-08-10T09:05:55.436Z,78.40
2018-08-10T09:06:54.774Z,78.31
2018-08-10T09:08:52.820Z,78.36
2018-08-10T09:09:52.805Z,78.36
2018-08-10T09:12:05.689Z,78.85
2018-08-10T09:13:05.529Z,78.85
2018-08-10T09:15:07.319Z,78.69
2018-08-10T09:16:06.977Z,77.83
2018-08-10T09:17:07.179Z,78.69
2018-08-10T09:18:09.033Z,78.79
2018-08-10T09:19:06.901Z,77.98
2018-08-10T09:20:06.932Z,78.46
2018-08-10T09:21:06.838Z,78.11
2018-08-10T09:22:06.850Z,77.40
2018-08-10T09:23:06.818Z,77.59
2018-08-10T09:24:06.767Z,77.50
2018-08-10T09:25:06.743Z,77.59
2018-08-10T09:26:06.727Z,77.59
2018-08-10T09:27:06.753Z,77.69
2018-08-10T09:28:06.697Z,77.59
2018-08-10T09:29:06.655Z,77.11
2018-08-10T09:30:06.676Z,77.88
2018-08-10T09:31:06.604Z,77.69
2018-08-10T09:32:06.569Z,77.59
2018-08-10T09:33:06.555Z,77.78
2018-08-10T09:34:06.521Z,77.50
2018-08-10T09:35:06.508Z,77.73
2018-08-10T09:36:06.473Z,76.92
2018-08-10T09:37:06.460Z,76.96
2018-08-10T09:38:06.411Z,76.09
2018-08-10T09:39:06.387Z,75.03
2018-08-10T09:40:06.482Z,73.39
2018-08-10T09:41:06.342Z,73.68
2018-08-10T09:42:06.362Z,71.85
2018-08-10T09:43:06.287Z,71.79
2018-08-10T09:44:27.601Z,70.64
2018-08-10T09:45:06.237Z,69.87
2018-08-10T09:46:06.260Z,69.42
2018-08-10T09:47:06.190Z,68.74
2018-08-10T09:48:06.169Z,67.81
2018-08-10T09:49:06.149Z,67.33
2018-08-10T09:50:06.143Z,66.30
2018-08-10T09:51:06.100Z,65.40
2018-08-10T09:52:06.068Z,64.43
2018-08-10T09:53:06.055Z,64.40
2018-08-10T09:54:06.087Z,65.69
2018-08-10T09:55:05.993Z,65.34
2018-08-10T09:56:08.885Z,65.63
2018-08-10T09:57:05.946Z,65.40
2018-08-10T09:58:05.932Z,66.69
2018-08-10T09:59:05.902Z,64.28
2018-08-10T10:00:05.901Z,62.92
2018-08-10T10:01:05.853Z,62.63
2018-08-10T10:02:05.823Z,61.77
2018-08-10T10:03:05.806Z,62.41
2018-08-10T10:04:05.777Z,62.41
2018-08-10T10:05:05.764Z,62.12
2018-08-10T10:06:05.733Z,62.51
2018-08-10T10:07:05.700Z,62.82
2018-08-10T10:08:05.677Z,61.38
2018-08-10T10:09:05.740Z,61.96
2018-08-10T10:10:05.635Z,62.92
2018-08-10T10:11:05.630Z,62.66
2018-08-10T10:12:05.630Z,61.70
2018-08-10T10:13:05.562Z,60.73
2018-08-10T10:14:05.536Z,60.35
2018-08-10T10:15:05.530Z,61.05
2018-08-10T10:16:05.554Z,59.60
2018-08-10T10:17:05.552Z,59.12
2018-08-10T10:18:05.651Z,59.22
2018-08-10T10:19:05.449Z,59.60
2018-08-10T10:20:05.456Z,59.00
2018-08-10T10:21:05.617Z,59.38
2018-08-10T10:22:05.372Z,59.00
2018-08-10T10:23:05.337Z,57.45
2018-08-10T10:24:05.306Z,58.10
2018-08-10T10:25:05.503Z,59.00
2018-08-10T10:26:05.337Z,59.35
2018-08-10T10:27:05.278Z,60.25
2018-08-10T10:28:05.333Z,59.28
2018-08-10T10:29:06.893Z,59.67
2018-08-10T10:30:24.095Z,59.77
2018-08-10T10:32:05.742Z,58.90
2018-08-10T10:33:05.792Z,58.51
2018-08-10T10:35:03.444Z,59.38
2018-08-10T10:36:03.569Z,59.58
2018-08-10T10:38:03.908Z,59.38
2018-08-10T10:39:03.887Z,59.28
2018-08-10T10:41:14.938Z,60.16
2018-08-10T10:42:15.065Z,58.51
2018-08-10T10:44:19.331Z,56.03
2018-08-10T10:45:19.660Z,54.90
2018-08-10T10:47:23.913Z,52.97
2018-08-10T10:48:23.904Z,53.47
2018-08-10T10:50:28.820Z,52.99
2018-08-10T10:51:28.488Z,54.03
2018-08-10T10:53:32.647Z,54.13
2018-08-10T10:54:32.471Z,54.83
2018-08-10T10:56:30.544Z,55.16
2018-08-10T10:57:30.545Z,56.56
2018-08-10T10:59:33.622Z,56.16
2018-08-10T11:00:34.090Z,54.75
2018-08-10T11:01:33.794Z,53.20
2018-08-10T11:02:33.782Z,52.81
2018-08-10T11:03:34.076Z,52.43
2018-08-10T11:04:35.367Z,53.03
2018-08-10T11:05:33.394Z,51.81
2018-08-10T11:06:35.085Z,51.06
2018-08-10T11:07:36.040Z,49.44
2018-08-10T11:13:22.133Z,50.33
2018-08-10T11:16:09.918Z,50.62
2018-08-10T11:17:26.927Z,50.45
2018-08-10T11:19:14.461Z,50.55
2018-08-10T11:20:14.297Z,50.16
2018-08-10T11:22:14.954Z,48.81
2018-08-10T11:23:13.173Z,49.32
2018-08-10T11:24:13.192Z,49.32
2018-08-10T11:25:13.100Z,49.05
2018-08-10T11:26:13.130Z,48.66
2018-08-10T11:27:12.994Z,47.41
2018-08-10T11:28:12.965Z,47.33
2018-08-10T11:29:12.854Z,46.46
2018-08-10T11:30:12.865Z,46.26
2018-08-10T11:31:13.171Z,46.26
2018-08-10T11:32:13.323Z,45.98
2018-08-10T11:33:13.237Z,45.78
2018-08-10T11:34:12.931Z,46.17
2018-08-10T11:35:27.558Z,46.67
2018-08-10T11:37:27.604Z,43.68
2018-08-10T11:38:26.987Z,43.16
2018-08-10T11:40:28.312Z,43.37
2018-08-10T11:41:28.560Z,43.86
2018-08-10T11:42:28.197Z,44.54
2018-08-10T11:43:28.062Z,43.57
2018-08-10T11:44:27.887Z,43.88
2018-08-10T11:45:27.973Z,42.56
2018-08-10T11:46:27.848Z,42.27
2018-08-10T11:47:27.831Z,42.78
2018-08-10T11:48:27.807Z,41.26
2018-08-10T11:49:27.783Z,40.89
2018-08-10T11:50:27.816Z,41.30
2018-08-10T11:51:27.732Z,41.99
2018-08-10T11:52:27.739Z,42.94
2018-08-10T11:53:27.727Z,43.43
2018-08-10T11:54:27.717Z,43.43
2018-08-10T11:55:27.654Z,43.27
2018-08-10T11:56:27.675Z,42.57
2018-08-10T11:57:27.613Z,42.77
2018-08-10T11:58:27.609Z,43.79
2018-08-10T11:59:27.584Z,44.67
2018-08-10T12:00:27.553Z,44.09
2018-08-10T12:01:27.536Z,43.99
2018-08-10T12:02:27.509Z,44.57
2018-08-10T12:03:27.506Z,42.85
2018-08-10T12:04:27.487Z,42.21
2018-08-10T12:05:27.449Z,41.61
2018-08-10T12:06:27.445Z,42.02
2018-08-10T12:07:27.420Z,41.82
2018-08-10T12:08:27.403Z,40.67
2018-08-10T12:09:27.385Z,39.84
2018-08-10T12:10:27.357Z,39.62
2018-08-10T12:11:27.333Z,39.14
2018-08-10T12:12:27.363Z,40.01
2018-08-10T12:13:27.313Z,39.34
2018-08-10T12:14:27.274Z,40.08
2018-08-10T12:15:27.260Z,40.87
2018-08-10T12:16:27.244Z,39.90
2018-08-10T12:17:27.234Z,39.59
2018-08-10T12:18:27.207Z,39.51
2018-08-10T12:19:27.206Z,37.86
2018-08-10T12:20:27.167Z,39.92
2018-08-10T12:21:27.139Z,41.76
2018-08-10T12:22:27.125Z,42.97
2018-08-10T12:23:27.095Z,43.73
2018-08-10T12:24:27.071Z,45.37
2018-08-10T12:25:27.069Z,46.12
2018-08-10T12:26:27.109Z,46.42
2018-08-10T12:27:27.027Z,46.25
2018-08-10T12:28:26.998Z,45.95
2018-08-10T12:29:26.977Z,46.53
2018-08-10T12:30:26.951Z,46.05
2018-08-10T12:31:26.935Z,46.22
2018-08-10T12:32:26.924Z,46.22
2018-08-10T12:33:26.900Z,46.15
2018-08-10T12:34:26.869Z,44.90
2018-08-10T12:35:26.856Z,43.43
2018-08-10T12:36:26.828Z,43.58
2018-08-10T12:37:26.822Z,44.64
2018-08-10T12:38:26.792Z,44.64
2018-08-10T12:39:26.840Z,44.81
2018-08-10T12:40:26.749Z,45.57
2018-08-10T12:41:26.725Z,46.25
2018-08-10T12:42:26.705Z,45.49
2018-08-10T12:43:26.693Z,43.62
2018-08-10T12:44:26.663Z,42.69
2018-08-10T12:45:26.640Z,43.12
2018-08-10T12:46:26.627Z,43.09
2018-08-10T12:47:26.645Z,43.38
2018-08-10T12:48:26.618Z,45.20
2018-08-10T12:49:26.679Z,45.01
2018-08-10T12:50:26.627Z,44.02
2018-08-10T12:51:26.532Z,44.31
2018-08-10T12:52:26.507Z,43.92
2018-08-10T12:53:26.508Z,43.73
2018-08-10T12:54:26.519Z,43.77
2018-08-10T12:55:26.430Z,43.19
2018-08-10T12:56:26.409Z,43.79
2018-08-10T12:57:26.447Z,42.63
2018-08-10T12:58:26.385Z,42.90
2018-08-10T12:59:26.359Z,43.29
2018-08-10T13:00:26.331Z,42.11
2018-08-10T13:01:26.329Z,41.80
2018-08-10T13:02:26.291Z,40.77
2018-08-10T13:03:26.295Z,41.39
2018-08-10T13:04:26.262Z,42.44
2018-08-10T13:05:26.243Z,43.68
2018-08-10T13:06:26.316Z,43.68
2018-08-10T13:07:26.187Z,43.68
2018-08-10T13:08:26.168Z,44.81
2018-08-10T13:09:26.155Z,44.62
2018-08-10T13:10:26.179Z,44.45
2018-08-10T13:11:26.146Z,43.85
2018-08-10T13:12:26.103Z,44.40
2018-08-10T13:13:47.594Z,45.28
2018-08-10T13:14:26.066Z,45.66
2018-08-10T13:15:26.164Z,46.05
2018-08-10T13:16:26.075Z,46.56
2018-08-10T13:17:25.991Z,44.64
2018-08-10T13:18:26.041Z,43.82
2018-08-10T13:19:25.949Z,42.33
2018-08-10T13:20:25.949Z,40.97
2018-08-10T13:21:25.910Z,41.49
2018-08-10T13:22:25.963Z,40.29
2018-08-10T13:23:25.880Z,42.26
2018-08-10T13:24:25.847Z,43.31
2018-08-10T13:25:25.857Z,45.22
2018-08-10T13:26:25.894Z,44.18
2018-08-10T13:27:25.801Z,45.40
2018-08-10T13:28:27.641Z,46.53
2018-08-10T13:29:25.748Z,46.15
2018-08-10T13:30:27.590Z,45.98
2018-08-10T13:31:25.720Z,46.34
2018-08-10T13:32:25.697Z,46.25
2018-08-10T13:33:25.678Z,46.44
2018-08-10T13:34:25.657Z,46.44
2018-08-10T13:35:25.716Z,46.15
2018-08-10T13:36:25.652Z,44.93
2018-08-10T13:37:25.609Z,44.67
2018-08-10T13:38:25.604Z,42.79
2018-08-10T13:39:25.568Z,43.06
2018-08-10T13:40:25.655Z,44.09
2018-08-10T13:41:25.521Z,44.74
2018-08-10T13:42:25.678Z,45.22